sensor_id;sensor_type;location;lat;lon;timestamp;P1;durP1;ratioP1;P2;durP2;ratioP2
75367;SDS011;63954;51.948;5.888;2022-10-31T00:00:55;7.75;;;4.28;;
75367;SDS011;63954;51.948;5.888;2022-10-31T00:03:23;6.93;;;4.40;;
75367;SDS011;63954;51.948;5.888;2022-10-31T00:05:52;8.77;;;6.13;;
75367;SDS011;63954;51.948;5.888;2022-10-31T00:08:19;8.95;;;5.53;;
75367;SDS011;63954;51.948;5.888;2022-10-31T00:10:46;7.07;;;4.75;;
75367;SDS011;63954;51.948;5.888;2022-10-31T00:13:15;10.07;;;5.60;;
75367;SDS011;63954;51.948;5.888;2022-10-31T00:15:42;9.18;;;5.78;;
75367;SDS011;63954;51.948;5.888;2022-10-31T00:18:09;7.78;;;5.28;;
75367;SDS011;63954;51.948;5.888;2022-10-31T00:20:37;10.23;;;5.78;;
75367;SDS011;63954;51.948;5.888;2022-10-31T00:23:05;9.38;;;5.80;;
75367;SDS011;63954;51.948;5.888;2022-10-31T00:25:33;7.05;;;4.15;;
75367;SDS011;63954;51.948;5.888;2022-10-31T00:28:01;9.45;;;5.63;;
75367;SDS011;63954;51.948;5.888;2022-10-31T00:30:30;7.43;;;4.63;;
75367;SDS011;63954;51.948;5.888;2022-10-31T00:32:57;7.78;;;4.93;;
75367;SDS011;63954;51.948;5.888;2022-10-31T00:35:24;9.10;;;5.40;;
75367;SDS011;63954;51.948;5.888;2022-10-31T00:37:51;8.15;;;4.85;;
75367;SDS011;63954;51.948;5.888;2022-10-31T00:40:19;9.20;;;6.03;;
75367;SDS011;63954;51.948;5.888;2022-10-31T00:42:46;9.70;;;4.47;;
75367;SDS011;63954;51.948;5.888;2022-10-31T00:45:13;8.75;;;5.47;;
75367;SDS011;63954;51.948;5.888;2022-10-31T00:47:42;7.65;;;4.40;;
75367;SDS011;63954;51.948;5.888;2022-10-31T00:50:09;7.97;;;4.82;;
75367;SDS011;63954;51.948;5.888;2022-10-31T00:52:37;9.25;;;3.50;;
75367;SDS011;63954;51.948;5.888;2022-10-31T00:55:05;8.60;;;5.53;;
75367;SDS011;63954;51.948;5.888;2022-10-31T00:57:32;7.82;;;5.13;;
75367;SDS011;63954;51.948;5.888;2022-10-31T01:00:02;10.18;;;4.40;;
75367;SDS011;63954;51.948;5.888;2022-10-31T01:02:29;8.48;;;5.03;;
75367;SDS011;63954;51.948;5.888;2022-10-31T01:04:58;10.60;;;6.35;;
75367;SDS011;63954;51.948;5.888;2022-10-31T01:07:25;9.10;;;5.07;;
75367;SDS011;63954;51.948;5.888;2022-10-31T01:09:52;7.00;;;4.13;;
75367;SDS011;63954;51.948;5.888;2022-10-31T01:12:19;7.28;;;4.53;;
75367;SDS011;63954;51.948;5.888;2022-10-31T01:14:47;9.48;;;6.07;;
75367;SDS011;63954;51.948;5.888;2022-10-31T01:17:17;9.48;;;5.80;;
75367;SDS011;63954;51.948;5.888;2022-10-31T01:19:46;6.82;;;3.15;;
75367;SDS011;63954;51.948;5.888;2022-10-31T01:22:15;8.13;;;4.88;;
75367;SDS011;63954;51.948;5.888;2022-10-31T01:24:42;8.40;;;3.95;;
75367;SDS011;63954;51.948;5.888;2022-10-31T01:27:09;7.93;;;4.75;;
75367;SDS011;63954;51.948;5.888;2022-10-31T01:29:36;8.43;;;5.20;;
75367;SDS011;63954;51.948;5.888;2022-10-31T01:32:04;12.13;;;7.28;;
75367;SDS011;63954;51.948;5.888;2022-10-31T01:34:31;7.18;;;3.85;;
75367;SDS011;63954;51.948;5.888;2022-10-31T01:37:01;13.75;;;8.85;;
75367;SDS011;63954;51.948;5.888;2022-10-31T01:39:29;12.07;;;6.68;;
75367;SDS011;63954;51.948;5.888;2022-10-31T01:41:57;9.80;;;6.05;;
75367;SDS011;63954;51.948;5.888;2022-10-31T01:47:19;9.90;;;5.47;;
75367;SDS011;63954;51.948;5.888;2022-10-31T01:49:52;6.75;;;3.08;;
75367;SDS011;63954;51.948;5.888;2022-10-31T01:52:22;7.10;;;4.45;;
75367;SDS011;63954;51.948;5.888;2022-10-31T01:54:53;8.07;;;4.57;;
75367;SDS011;63954;51.948;5.888;2022-10-31T01:57:25;7.05;;;3.40;;
75367;SDS011;63954;51.948;5.888;2022-10-31T01:59:53;7.68;;;4.80;;
75367;SDS011;63954;51.948;5.888;2022-10-31T02:02:24;10.32;;;5.97;;
75367;SDS011;63954;51.948;5.888;2022-10-31T02:04:54;7.78;;;3.80;;
75367;SDS011;63954;51.948;5.888;2022-10-31T02:07:23;8.90;;;4.63;;
75367;SDS011;63954;51.948;5.888;2022-10-31T02:09:58;6.68;;;3.97;;
75367;SDS011;63954;51.948;5.888;2022-10-31T02:12:27;10.25;;;6.20;;
75367;SDS011;63954;51.948;5.888;2022-10-31T02:14:58;7.95;;;4.22;;
75367;SDS011;63954;51.948;5.888;2022-10-31T02:17:26;7.05;;;5.15;;
75367;SDS011;63954;51.948;5.888;2022-10-31T02:19:57;9.57;;;6.13;;
75367;SDS011;63954;51.948;5.888;2022-10-31T02:22:34;10.45;;;6.22;;
75367;SDS011;63954;51.948;5.888;2022-10-31T02:25:18;10.02;;;6.43;;
75367;SDS011;63954;51.948;5.888;2022-10-31T02:28:15;7.97;;;5.10;;
75367;SDS011;63954;51.948;5.888;2022-10-31T02:31:12;8.77;;;3.30;;
75367;SDS011;63954;51.948;5.888;2022-10-31T02:33:52;6.75;;;4.05;;
75367;SDS011;63954;51.948;5.888;2022-10-31T02:36:23;10.85;;;6.00;;
75367;SDS011;63954;51.948;5.888;2022-10-31T02:38:56;8.95;;;4.85;;
75367;SDS011;63954;51.948;5.888;2022-10-31T02:41:41;8.20;;;4.45;;
75367;SDS011;63954;51.948;5.888;2022-10-31T02:44:16;14.88;;;7.20;;
75367;SDS011;63954;51.948;5.888;2022-10-31T02:46:52;7.03;;;4.20;;
75367;SDS011;63954;51.948;5.888;2022-10-31T02:49:22;8.50;;;3.40;;
75367;SDS011;63954;51.948;5.888;2022-10-31T02:51:54;9.25;;;4.85;;
75367;SDS011;63954;51.948;5.888;2022-10-31T02:54:22;9.65;;;6.15;;
75367;SDS011;63954;51.948;5.888;2022-10-31T02:56:54;11.07;;;5.85;;
75367;SDS011;63954;51.948;5.888;2022-10-31T02:59:27;8.88;;;5.13;;
75367;SDS011;63954;51.948;5.888;2022-10-31T03:02:04;7.65;;;4.32;;
75367;SDS011;63954;51.948;5.888;2022-10-31T03:04:42;5.90;;;2.85;;
75367;SDS011;63954;51.948;5.888;2022-10-31T03:07:25;8.55;;;4.80;;
75367;SDS011;63954;51.948;5.888;2022-10-31T03:10:03;9.18;;;3.30;;
75367;SDS011;63954;51.948;5.888;2022-10-31T03:12:38;9.52;;;6.05;;
75367;SDS011;63954;51.948;5.888;2022-10-31T03:15:11;7.18;;;4.75;;
75367;SDS011;63954;51.948;5.888;2022-10-31T03:17:45;9.00;;;6.35;;
75367;SDS011;63954;51.948;5.888;2022-10-31T03:20:24;9.23;;;5.47;;
75367;SDS011;63954;51.948;5.888;2022-10-31T03:22:56;9.25;;;5.30;;
75367;SDS011;63954;51.948;5.888;2022-10-31T03:25:25;10.63;;;3.88;;
75367;SDS011;63954;51.948;5.888;2022-10-31T03:27:56;9.10;;;5.50;;
75367;SDS011;63954;51.948;5.888;2022-10-31T03:30:24;9.38;;;5.53;;
75367;SDS011;63954;51.948;5.888;2022-10-31T03:32:57;12.13;;;5.50;;
75367;SDS011;63954;51.948;5.888;2022-10-31T03:35:30;8.35;;;3.85;;
75367;SDS011;63954;51.948;5.888;2022-10-31T03:38:01;8.07;;;5.25;;
75367;SDS011;63954;51.948;5.888;2022-10-31T03:40:32;7.85;;;4.55;;
75367;SDS011;63954;51.948;5.888;2022-10-31T03:43:03;9.80;;;4.40;;
75367;SDS011;63954;51.948;5.888;2022-10-31T03:45:35;8.23;;;4.57;;
75367;SDS011;63954;51.948;5.888;2022-10-31T03:48:09;8.40;;;5.05;;
75367;SDS011;63954;51.948;5.888;2022-10-31T03:50:38;8.50;;;5.57;;
75367;SDS011;63954;51.948;5.888;2022-10-31T03:53:09;9.60;;;5.85;;
75367;SDS011;63954;51.948;5.888;2022-10-31T03:55:42;10.57;;;5.47;;
75367;SDS011;63954;51.948;5.888;2022-10-31T03:58:18;10.40;;;5.65;;
75367;SDS011;63954;51.948;5.888;2022-10-31T04:00:48;9.65;;;6.10;;
75367;SDS011;63954;51.948;5.888;2022-10-31T04:03:21;10.88;;;6.63;;
75367;SDS011;63954;51.948;5.888;2022-10-31T04:08:24;8.65;;;5.70;;
75367;SDS011;63954;51.948;5.888;2022-10-31T04:10:55;9.82;;;6.13;;
75367;SDS011;63954;51.948;5.888;2022-10-31T04:13:25;8.93;;;5.88;;
75367;SDS011;63954;51.948;5.888;2022-10-31T04:16:05;7.45;;;4.47;;
75367;SDS011;63954;51.948;5.888;2022-10-31T04:18:34;9.95;;;6.00;;
75367;SDS011;63954;51.948;5.888;2022-10-31T04:21:03;7.90;;;5.00;;
75367;SDS011;63954;51.948;5.888;2022-10-31T04:26:00;11.20;;;5.85;;
75367;SDS011;63954;51.948;5.888;2022-10-31T04:28:28;9.48;;;5.70;;
75367;SDS011;63954;51.948;5.888;2022-10-31T04:30:56;10.10;;;5.95;;
75367;SDS011;63954;51.948;5.888;2022-10-31T04:33:24;9.70;;;5.43;;
75367;SDS011;63954;51.948;5.888;2022-10-31T04:35:52;10.27;;;5.55;;
75367;SDS011;63954;51.948;5.888;2022-10-31T04:38:19;9.15;;;5.30;;
75367;SDS011;63954;51.948;5.888;2022-10-31T04:40:48;7.55;;;3.65;;
75367;SDS011;63954;51.948;5.888;2022-10-31T04:43:15;11.50;;;6.65;;
75367;SDS011;63954;51.948;5.888;2022-10-31T04:45:45;12.25;;;7.47;;
75367;SDS011;63954;51.948;5.888;2022-10-31T04:48:13;12.00;;;6.68;;
75367;SDS011;63954;51.948;5.888;2022-10-31T04:50:42;12.00;;;7.30;;
75367;SDS011;63954;51.948;5.888;2022-10-31T04:53:10;10.93;;;7.22;;
75367;SDS011;63954;51.948;5.888;2022-10-31T04:55:57;8.25;;;3.80;;
75367;SDS011;63954;51.948;5.888;2022-10-31T04:58:32;9.77;;;5.18;;
75367;SDS011;63954;51.948;5.888;2022-10-31T05:00:59;10.57;;;6.55;;
75367;SDS011;63954;51.948;5.888;2022-10-31T05:03:26;10.13;;;4.65;;
75367;SDS011;63954;51.948;5.888;2022-10-31T05:05:54;9.40;;;5.00;;
75367;SDS011;63954;51.948;5.888;2022-10-31T05:08:22;6.82;;;4.28;;
75367;SDS011;63954;51.948;5.888;2022-10-31T05:10:51;7.78;;;4.65;;
75367;SDS011;63954;51.948;5.888;2022-10-31T05:13:18;11.10;;;4.90;;
75367;SDS011;63954;51.948;5.888;2022-10-31T05:16:06;11.85;;;6.35;;
75367;SDS011;63954;51.948;5.888;2022-10-31T05:19:05;7.65;;;4.68;;
75367;SDS011;63954;51.948;5.888;2022-10-31T05:22:05;6.75;;;3.90;;
75367;SDS011;63954;51.948;5.888;2022-10-31T05:24:34;12.15;;;6.10;;
75367;SDS011;63954;51.948;5.888;2022-10-31T05:29:29;11.95;;;6.80;;
75367;SDS011;63954;51.948;5.888;2022-10-31T05:32:00;11.65;;;6.45;;
75367;SDS011;63954;51.948;5.888;2022-10-31T05:35:03;10.48;;;6.68;;
75367;SDS011;63954;51.948;5.888;2022-10-31T05:37:59;9.80;;;6.68;;
75367;SDS011;63954;51.948;5.888;2022-10-31T05:40:28;8.23;;;4.60;;
75367;SDS011;63954;51.948;5.888;2022-10-31T05:42:56;11.23;;;6.38;;
75367;SDS011;63954;51.948;5.888;2022-10-31T05:45:24;7.60;;;4.50;;
75367;SDS011;63954;51.948;5.888;2022-10-31T05:47:57;9.07;;;5.05;;
75367;SDS011;63954;51.948;5.888;2022-10-31T05:50:48;10.55;;;4.97;;
75367;SDS011;63954;51.948;5.888;2022-10-31T05:53:16;11.38;;;6.32;;
75367;SDS011;63954;51.948;5.888;2022-10-31T05:55:46;9.40;;;4.97;;
75367;SDS011;63954;51.948;5.888;2022-10-31T05:58:18;7.93;;;4.65;;
75367;SDS011;63954;51.948;5.888;2022-10-31T06:00:52;10.20;;;5.00;;
75367;SDS011;63954;51.948;5.888;2022-10-31T06:03:20;8.02;;;4.78;;
75367;SDS011;63954;51.948;5.888;2022-10-31T06:05:50;6.85;;;3.53;;
75367;SDS011;63954;51.948;5.888;2022-10-31T06:08:17;7.78;;;4.93;;
75367;SDS011;63954;51.948;5.888;2022-10-31T06:10:46;8.32;;;5.68;;
75367;SDS011;63954;51.948;5.888;2022-10-31T06:13:16;11.50;;;6.32;;
75367;SDS011;63954;51.948;5.888;2022-10-31T06:15:49;9.65;;;6.15;;
75367;SDS011;63954;51.948;5.888;2022-10-31T06:18:20;9.38;;;4.20;;
75367;SDS011;63954;51.948;5.888;2022-10-31T06:20:50;14.43;;;9.25;;
75367;SDS011;63954;51.948;5.888;2022-10-31T06:23:17;13.95;;;7.60;;
75367;SDS011;63954;51.948;5.888;2022-10-31T06:25:51;17.08;;;10.13;;
75367;SDS011;63954;51.948;5.888;2022-10-31T06:28:18;11.32;;;6.22;;
75367;SDS011;63954;51.948;5.888;2022-10-31T06:31:00;14.90;;;6.97;;
75367;SDS011;63954;51.948;5.888;2022-10-31T06:33:30;24.02;;;10.10;;
75367;SDS011;63954;51.948;5.888;2022-10-31T06:36:00;8.50;;;4.28;;
75367;SDS011;63954;51.948;5.888;2022-10-31T06:38:28;11.90;;;7.45;;
75367;SDS011;63954;51.948;5.888;2022-10-31T06:41:01;17.73;;;8.88;;
75367;SDS011;63954;51.948;5.888;2022-10-31T06:43:35;16.27;;;8.38;;
75367;SDS011;63954;51.948;5.888;2022-10-31T06:46:20;12.20;;;6.43;;
75367;SDS011;63954;51.948;5.888;2022-10-31T06:49:07;7.10;;;3.88;;
75367;SDS011;63954;51.948;5.888;2022-10-31T06:52:00;11.55;;;7.10;;
75367;SDS011;63954;51.948;5.888;2022-10-31T06:54:30;14.10;;;6.60;;
75367;SDS011;63954;51.948;5.888;2022-10-31T06:56:58;17.58;;;6.57;;
75367;SDS011;63954;51.948;5.888;2022-10-31T06:59:27;12.48;;;6.15;;
75367;SDS011;63954;51.948;5.888;2022-10-31T07:02:04;10.82;;;5.05;;
75367;SDS011;63954;51.948;5.888;2022-10-31T07:04:32;9.23;;;5.80;;
75367;SDS011;63954;51.948;5.888;2022-10-31T07:07:00;18.35;;;8.30;;
75367;SDS011;63954;51.948;5.888;2022-10-31T07:09:27;13.05;;;6.70;;
75367;SDS011;63954;51.948;5.888;2022-10-31T07:11:58;12.65;;;8.02;;
75367;SDS011;63954;51.948;5.888;2022-10-31T07:14:25;12.90;;;7.63;;
75367;SDS011;63954;51.948;5.888;2022-10-31T07:16:53;11.45;;;6.88;;
75367;SDS011;63954;51.948;5.888;2022-10-31T07:19:30;13.77;;;7.50;;
75367;SDS011;63954;51.948;5.888;2022-10-31T07:21:58;8.23;;;4.72;;
75367;SDS011;63954;51.948;5.888;2022-10-31T07:24:27;12.20;;;7.13;;
75367;SDS011;63954;51.948;5.888;2022-10-31T07:27:15;8.63;;;5.65;;
75367;SDS011;63954;51.948;5.888;2022-10-31T07:29:44;8.40;;;4.55;;
75367;SDS011;63954;51.948;5.888;2022-10-31T07:32:12;23.70;;;13.27;;
75367;SDS011;63954;51.948;5.888;2022-10-31T07:34:45;30.83;;;14.05;;
75367;SDS011;63954;51.948;5.888;2022-10-31T07:37:21;23.23;;;11.00;;
75367;SDS011;63954;51.948;5.888;2022-10-31T07:39:48;27.83;;;12.38;;
75367;SDS011;63954;51.948;5.888;2022-10-31T07:42:17;22.15;;;11.27;;
75367;SDS011;63954;51.948;5.888;2022-10-31T07:44:45;16.48;;;8.43;;
75367;SDS011;63954;51.948;5.888;2022-10-31T07:47:37;17.35;;;9.30;;
75367;SDS011;63954;51.948;5.888;2022-10-31T07:50:40;5.40;;;3.08;;
75367;SDS011;63954;51.948;5.888;2022-10-31T07:53:26;23.40;;;14.10;;
75367;SDS011;63954;51.948;5.888;2022-10-31T07:56:10;15.48;;;9.48;;
75367;SDS011;63954;51.948;5.888;2022-10-31T07:58:38;16.55;;;9.82;;
75367;SDS011;63954;51.948;5.888;2022-10-31T08:03:41;17.50;;;9.50;;
75367;SDS011;63954;51.948;5.888;2022-10-31T08:06:29;24.10;;;14.95;;
75367;SDS011;63954;51.948;5.888;2022-10-31T08:09:22;10.93;;;6.20;;
75367;SDS011;63954;51.948;5.888;2022-10-31T08:11:52;26.50;;;16.42;;
75367;SDS011;63954;51.948;5.888;2022-10-31T08:14:21;20.65;;;13.20;;
75367;SDS011;63954;51.948;5.888;2022-10-31T08:16:51;27.35;;;18.95;;
75367;SDS011;63954;51.948;5.888;2022-10-31T08:19:22;24.60;;;15.93;;
75367;SDS011;63954;51.948;5.888;2022-10-31T08:21:50;25.27;;;14.63;;
75367;SDS011;63954;51.948;5.888;2022-10-31T08:24:17;20.38;;;13.25;;
75367;SDS011;63954;51.948;5.888;2022-10-31T08:26:45;21.95;;;14.45;;
75367;SDS011;63954;51.948;5.888;2022-10-31T08:29:15;23.55;;;14.10;;
75367;SDS011;63954;51.948;5.888;2022-10-31T08:31:44;23.05;;;15.00;;
75367;SDS011;63954;51.948;5.888;2022-10-31T08:34:29;22.70;;;15.10;;
75367;SDS011;63954;51.948;5.888;2022-10-31T08:39:52;25.05;;;16.20;;
75367;SDS011;63954;51.948;5.888;2022-10-31T08:42:20;22.30;;;14.43;;
75367;SDS011;63954;51.948;5.888;2022-10-31T08:44:47;26.88;;;16.30;;
75367;SDS011;63954;51.948;5.888;2022-10-31T08:47:16;29.13;;;18.52;;
75367;SDS011;63954;51.948;5.888;2022-10-31T08:49:43;27.77;;;16.60;;
75367;SDS011;63954;51.948;5.888;2022-10-31T08:52:10;33.60;;;19.55;;
75367;SDS011;63954;51.948;5.888;2022-10-31T08:54:40;29.85;;;17.48;;
75367;SDS011;63954;51.948;5.888;2022-10-31T08:57:27;23.23;;;13.20;;
75367;SDS011;63954;51.948;5.888;2022-10-31T08:59:57;29.67;;;19.80;;
75367;SDS011;63954;51.948;5.888;2022-10-31T09:02:45;28.80;;;17.75;;
75367;SDS011;63954;51.948;5.888;2022-10-31T09:05:13;29.05;;;19.30;;
75367;SDS011;63954;51.948;5.888;2022-10-31T09:07:40;27.98;;;17.40;;
75367;SDS011;63954;51.948;5.888;2022-10-31T09:10:07;22.42;;;14.57;;
75367;SDS011;63954;51.948;5.888;2022-10-31T09:12:37;23.52;;;16.58;;
75367;SDS011;63954;51.948;5.888;2022-10-31T09:15:22;24.40;;;16.83;;
75367;SDS011;63954;51.948;5.888;2022-10-31T09:18:01;25.67;;;15.13;;
75367;SDS011;63954;51.948;5.888;2022-10-31T09:20:51;26.83;;;16.60;;
75367;SDS011;63954;51.948;5.888;2022-10-31T09:23:19;21.10;;;13.68;;
75367;SDS011;63954;51.948;5.888;2022-10-31T09:25:48;20.95;;;14.27;;
75367;SDS011;63954;51.948;5.888;2022-10-31T09:28:32;21.50;;;14.65;;
75367;SDS011;63954;51.948;5.888;2022-10-31T09:31:08;30.55;;;20.80;;
75367;SDS011;63954;51.948;5.888;2022-10-31T09:33:48;26.77;;;17.88;;
75367;SDS011;63954;51.948;5.888;2022-10-31T09:36:38;28.38;;;19.63;;
75367;SDS011;63954;51.948;5.888;2022-10-31T09:39:09;27.90;;;18.73;;
75367;SDS011;63954;51.948;5.888;2022-10-31T09:41:43;18.08;;;12.52;;
75367;SDS011;63954;51.948;5.888;2022-10-31T09:44:24;19.33;;;14.00;;
75367;SDS011;63954;51.948;5.888;2022-10-31T09:46:59;27.75;;;17.15;;
75367;SDS011;63954;51.948;5.888;2022-10-31T09:49:50;27.02;;;17.10;;
75367;SDS011;63954;51.948;5.888;2022-10-31T09:52:28;20.27;;;13.82;;
75367;SDS011;63954;51.948;5.888;2022-10-31T09:55:04;30.38;;;17.55;;
75367;SDS011;63954;51.948;5.888;2022-10-31T09:57:39;31.50;;;20.50;;
75367;SDS011;63954;51.948;5.888;2022-10-31T10:00:10;17.85;;;11.00;;
75367;SDS011;63954;51.948;5.888;2022-10-31T10:02:46;21.35;;;12.90;;
75367;SDS011;63954;51.948;5.888;2022-10-31T10:05:21;23.80;;;13.93;;
75367;SDS011;63954;51.948;5.888;2022-10-31T10:07:58;18.02;;;12.75;;
75367;SDS011;63954;51.948;5.888;2022-10-31T10:10:51;26.92;;;16.90;;
75367;SDS011;63954;51.948;5.888;2022-10-31T10:13:46;20.35;;;12.32;;
75367;SDS011;63954;51.948;5.888;2022-10-31T10:16:28;23.02;;;13.20;;
75367;SDS011;63954;51.948;5.888;2022-10-31T10:19:11;30.73;;;16.33;;
75367;SDS011;63954;51.948;5.888;2022-10-31T10:21:53;30.30;;;17.45;;
75367;SDS011;63954;51.948;5.888;2022-10-31T10:24:32;16.58;;;10.73;;
75367;SDS011;63954;51.948;5.888;2022-10-31T10:27:12;33.38;;;18.70;;
75367;SDS011;63954;51.948;5.888;2022-10-31T10:29:47;23.42;;;13.77;;
75367;SDS011;63954;51.948;5.888;2022-10-31T10:32:20;34.50;;;19.70;;
75367;SDS011;63954;51.948;5.888;2022-10-31T10:34:51;32.92;;;19.52;;
75367;SDS011;63954;51.948;5.888;2022-10-31T10:37:29;35.28;;;20.50;;
75367;SDS011;63954;51.948;5.888;2022-10-31T10:40:01;26.85;;;14.43;;
75367;SDS011;63954;51.948;5.888;2022-10-31T10:42:34;32.03;;;16.95;;
75367;SDS011;63954;51.948;5.888;2022-10-31T10:45:22;32.53;;;17.90;;
75367;SDS011;63954;51.948;5.888;2022-10-31T10:48:14;31.42;;;14.20;;
75367;SDS011;63954;51.948;5.888;2022-10-31T10:50:44;31.17;;;16.77;;
75367;SDS011;63954;51.948;5.888;2022-10-31T10:53:23;22.52;;;13.40;;
75367;SDS011;63954;51.948;5.888;2022-10-31T10:56:04;30.77;;;15.20;;
75367;SDS011;63954;51.948;5.888;2022-10-31T10:58:40;29.55;;;17.58;;
75367;SDS011;63954;51.948;5.888;2022-10-31T11:03:37;25.90;;;14.60;;
75367;SDS011;63954;51.948;5.888;2022-10-31T11:06:15;26.48;;;15.80;;
75367;SDS011;63954;51.948;5.888;2022-10-31T11:08:49;27.52;;;15.85;;
75367;SDS011;63954;51.948;5.888;2022-10-31T11:11:20;25.70;;;16.33;;
75367;SDS011;63954;51.948;5.888;2022-10-31T11:13:52;20.42;;;11.73;;
75367;SDS011;63954;51.948;5.888;2022-10-31T11:16:28;25.63;;;14.55;;
75367;SDS011;63954;51.948;5.888;2022-10-31T11:19:05;21.92;;;14.18;;
75367;SDS011;63954;51.948;5.888;2022-10-31T11:21:34;25.63;;;14.63;;
75367;SDS011;63954;51.948;5.888;2022-10-31T11:24:03;26.92;;;16.50;;
75367;SDS011;63954;51.948;5.888;2022-10-31T11:26:39;30.83;;;16.27;;
75367;SDS011;63954;51.948;5.888;2022-10-31T11:29:11;26.33;;;16.70;;
75367;SDS011;63954;51.948;5.888;2022-10-31T11:31:41;21.95;;;13.10;;
75367;SDS011;63954;51.948;5.888;2022-10-31T11:36:42;22.58;;;12.02;;
75367;SDS011;63954;51.948;5.888;2022-10-31T11:39:17;34.35;;;18.52;;
75367;SDS011;63954;51.948;5.888;2022-10-31T11:41:47;32.92;;;19.35;;
75367;SDS011;63954;51.948;5.888;2022-10-31T11:44:16;35.53;;;16.55;;
75367;SDS011;63954;51.948;5.888;2022-10-31T11:46:46;25.08;;;15.70;;
75367;SDS011;63954;51.948;5.888;2022-10-31T11:49:15;33.45;;;19.70;;
75367;SDS011;63954;51.948;5.888;2022-10-31T11:51:47;35.22;;;18.98;;
75367;SDS011;63954;51.948;5.888;2022-10-31T11:54:20;29.85;;;16.90;;
75367;SDS011;63954;51.948;5.888;2022-10-31T11:56:50;32.05;;;17.50;;
75367;SDS011;63954;51.948;5.888;2022-10-31T11:59:21;35.17;;;17.20;;
75367;SDS011;63954;51.948;5.888;2022-10-31T12:01:53;29.17;;;16.95;;
75367;SDS011;63954;51.948;5.888;2022-10-31T12:04:24;30.77;;;17.90;;
75367;SDS011;63954;51.948;5.888;2022-10-31T12:06:57;32.92;;;17.25;;
75367;SDS011;63954;51.948;5.888;2022-10-31T12:09:26;30.60;;;16.92;;
75367;SDS011;63954;51.948;5.888;2022-10-31T12:12:10;31.83;;;18.77;;
75367;SDS011;63954;51.948;5.888;2022-10-31T12:14:59;35.38;;;18.45;;
75367;SDS011;63954;51.948;5.888;2022-10-31T12:17:40;36.25;;;18.30;;
75367;SDS011;63954;51.948;5.888;2022-10-31T12:20:18;33.50;;;17.45;;
75367;SDS011;63954;51.948;5.888;2022-10-31T12:22:52;24.95;;;16.48;;
75367;SDS011;63954;51.948;5.888;2022-10-31T12:25:35;30.30;;;17.25;;
75367;SDS011;63954;51.948;5.888;2022-10-31T12:28:24;28.38;;;16.80;;
75367;SDS011;63954;51.948;5.888;2022-10-31T12:31:08;28.67;;;17.27;;
75367;SDS011;63954;51.948;5.888;2022-10-31T12:33:45;37.08;;;18.23;;
75367;SDS011;63954;51.948;5.888;2022-10-31T12:36:43;27.27;;;15.52;;
75367;SDS011;63954;51.948;5.888;2022-10-31T12:39:29;32.60;;;17.52;;
75367;SDS011;63954;51.948;5.888;2022-10-31T12:42:07;33.58;;;17.92;;
75367;SDS011;63954;51.948;5.888;2022-10-31T12:44:50;34.22;;;16.35;;
75367;SDS011;63954;51.948;5.888;2022-10-31T12:47:30;34.33;;;18.92;;
75367;SDS011;63954;51.948;5.888;2022-10-31T12:50:22;29.20;;;15.35;;
75367;SDS011;63954;51.948;5.888;2022-10-31T12:53:03;37.80;;;19.98;;
75367;SDS011;63954;51.948;5.888;2022-10-31T12:55:46;37.05;;;19.70;;
75367;SDS011;63954;51.948;5.888;2022-10-31T12:58:28;35.72;;;19.08;;
75367;SDS011;63954;51.948;5.888;2022-10-31T13:01:01;34.05;;;19.17;;
75367;SDS011;63954;51.948;5.888;2022-10-31T13:03:37;37.33;;;17.75;;
75367;SDS011;63954;51.948;5.888;2022-10-31T13:06:10;31.90;;;19.05;;
75367;SDS011;63954;51.948;5.888;2022-10-31T13:08:45;38.03;;;19.80;;
75367;SDS011;63954;51.948;5.888;2022-10-31T13:11:16;34.42;;;18.77;;
75367;SDS011;63954;51.948;5.888;2022-10-31T13:13:54;38.60;;;21.92;;
75367;SDS011;63954;51.948;5.888;2022-10-31T13:16:28;32.25;;;17.63;;
75367;SDS011;63954;51.948;5.888;2022-10-31T13:19:01;34.75;;;19.92;;
75367;SDS011;63954;51.948;5.888;2022-10-31T13:21:35;36.33;;;19.08;;
75367;SDS011;63954;51.948;5.888;2022-10-31T13:24:08;24.77;;;14.70;;
75367;SDS011;63954;51.948;5.888;2022-10-31T13:26:40;28.67;;;16.73;;
75367;SDS011;63954;51.948;5.888;2022-10-31T13:29:15;36.78;;;20.23;;
75367;SDS011;63954;51.948;5.888;2022-10-31T13:31:46;37.08;;;17.48;;
75367;SDS011;63954;51.948;5.888;2022-10-31T13:34:19;23.05;;;14.05;;
75367;SDS011;63954;51.948;5.888;2022-10-31T13:36:54;29.40;;;15.50;;
75367;SDS011;63954;51.948;5.888;2022-10-31T13:39:33;31.88;;;18.00;;
75367;SDS011;63954;51.948;5.888;2022-10-31T13:42:11;36.25;;;18.45;;
75367;SDS011;63954;51.948;5.888;2022-10-31T13:44:45;34.38;;;18.60;;
75367;SDS011;63954;51.948;5.888;2022-10-31T13:49:50;24.55;;;14.82;;
75367;SDS011;63954;51.948;5.888;2022-10-31T13:52:22;31.23;;;15.90;;
75367;SDS011;63954;51.948;5.888;2022-10-31T13:54:51;36.72;;;17.27;;
75367;SDS011;63954;51.948;5.888;2022-10-31T13:57:24;30.25;;;16.67;;
75367;SDS011;63954;51.948;5.888;2022-10-31T14:00:00;27.27;;;15.38;;
75367;SDS011;63954;51.948;5.888;2022-10-31T14:02:43;29.33;;;15.00;;
75367;SDS011;63954;51.948;5.888;2022-10-31T14:05:18;28.15;;;16.45;;
75367;SDS011;63954;51.948;5.888;2022-10-31T14:07:50;25.52;;;15.23;;
75367;SDS011;63954;51.948;5.888;2022-10-31T14:10:20;27.77;;;15.10;;
75367;SDS011;63954;51.948;5.888;2022-10-31T14:12:51;27.55;;;13.52;;
75367;SDS011;63954;51.948;5.888;2022-10-31T14:15:22;26.83;;;15.75;;
75367;SDS011;63954;51.948;5.888;2022-10-31T14:17:51;29.63;;;16.30;;
75367;SDS011;63954;51.948;5.888;2022-10-31T14:23:11;24.48;;;13.68;;
75367;SDS011;63954;51.948;5.888;2022-10-31T14:25:40;26.50;;;13.75;;
75367;SDS011;63954;51.948;5.888;2022-10-31T14:28:18;27.27;;;15.25;;
75367;SDS011;63954;51.948;5.888;2022-10-31T14:30:52;24.63;;;14.68;;
75367;SDS011;63954;51.948;5.888;2022-10-31T14:33:22;27.55;;;14.88;;
75367;SDS011;63954;51.948;5.888;2022-10-31T14:35:53;29.95;;;15.02;;
75367;SDS011;63954;51.948;5.888;2022-10-31T14:38:30;24.23;;;13.75;;
75367;SDS011;63954;51.948;5.888;2022-10-31T14:41:17;27.85;;;16.00;;
75367;SDS011;63954;51.948;5.888;2022-10-31T14:43:58;26.15;;;13.50;;
75367;SDS011;63954;51.948;5.888;2022-10-31T14:46:44;31.83;;;17.88;;
75367;SDS011;63954;51.948;5.888;2022-10-31T14:49:24;32.33;;;17.30;;
75367;SDS011;63954;51.948;5.888;2022-10-31T14:52:01;36.20;;;17.33;;
75367;SDS011;63954;51.948;5.888;2022-10-31T14:54:29;27.40;;;15.52;;
75367;SDS011;63954;51.948;5.888;2022-10-31T14:57:00;22.73;;;11.98;;
75367;SDS011;63954;51.948;5.888;2022-10-31T14:59:33;19.58;;;12.13;;
75367;SDS011;63954;51.948;5.888;2022-10-31T15:02:09;26.17;;;14.50;;
75367;SDS011;63954;51.948;5.888;2022-10-31T15:04:39;25.98;;;13.30;;
75367;SDS011;63954;51.948;5.888;2022-10-31T15:07:10;29.30;;;14.90;;
75367;SDS011;63954;51.948;5.888;2022-10-31T15:09:41;19.58;;;10.32;;
75367;SDS011;63954;51.948;5.888;2022-10-31T15:12:22;31.00;;;15.65;;
75367;SDS011;63954;51.948;5.888;2022-10-31T15:14:51;24.55;;;15.35;;
75367;SDS011;63954;51.948;5.888;2022-10-31T15:17:20;33.83;;;17.13;;
75367;SDS011;63954;51.948;5.888;2022-10-31T15:19:50;20.33;;;9.77;;
75367;SDS011;63954;51.948;5.888;2022-10-31T15:22:19;29.15;;;16.50;;
75367;SDS011;63954;51.948;5.888;2022-10-31T15:24:49;22.13;;;14.40;;
75367;SDS011;63954;51.948;5.888;2022-10-31T15:27:21;17.73;;;10.10;;
75367;SDS011;63954;51.948;5.888;2022-10-31T15:29:50;25.70;;;15.07;;
75367;SDS011;63954;51.948;5.888;2022-10-31T15:32:21;24.42;;;11.68;;
75367;SDS011;63954;51.948;5.888;2022-10-31T15:34:50;23.17;;;12.38;;
75367;SDS011;63954;51.948;5.888;2022-10-31T15:39:46;29.08;;;14.75;;